createdAt,value
2017-06-13T00:00:28.056Z,0
2017-06-13T00:01:08.540Z,0
2017-06-13T00:01:49.030Z,0
2017-06-13T00:04:22.155Z,0
2017-06-13T00:05:02.634Z,0
2017-06-13T00:07:35.648Z,0
2017-06-13T00:08:16.117Z,0
2017-06-13T00:08:56.588Z,0
2017-06-13T00:09:37.050Z,0
2017-06-13T00:11:49.799Z,0
2017-06-13T00:12:30.285Z,0
2017-06-13T00:13:10.776Z,0
2017-06-13T00:13:51.281Z,0
2017-06-13T00:14:31.767Z,0
2017-06-13T00:15:12.245Z,0
2017-06-13T00:15:52.739Z,0
2017-06-13T00:16:33.234Z,0
2017-06-13T00:17:13.722Z,0
2017-06-13T00:17:54.218Z,0
2017-06-13T00:18:34.714Z,0
2017-06-13T00:19:15.209Z,0
2017-06-13T00:19:55.703Z,0
2017-06-13T00:20:36.991Z,0
2017-06-13T00:21:17.473Z,0
2017-06-13T00:21:57.964Z,0
2017-06-13T00:22:38.442Z,0
2017-06-13T00:23:18.936Z,0
2017-06-13T00:23:59.426Z,0
2017-06-13T00:24:39.909Z,0
2017-06-13T00:25:20.400Z,0
2017-06-13T00:26:01.676Z,0
2017-06-13T00:26:42.168Z,0
2017-06-13T00:27:22.654Z,0
2017-06-13T00:28:03.162Z,0
2017-06-13T00:28:43.651Z,0
2017-06-13T00:29:24.135Z,0
2017-06-13T00:30:04.631Z,0
2017-06-13T00:30:45.117Z,0
2017-06-13T00:31:25.595Z,0
2017-06-13T00:32:06.071Z,0
2017-06-13T00:32:46.563Z,0
2017-06-13T00:33:27.061Z,0
2017-06-13T00:34:07.545Z,0
2017-06-13T00:34:48.046Z,0
2017-06-13T00:35:28.535Z,0
2017-06-13T00:36:09.053Z,0
2017-06-13T00:36:49.543Z,0
2017-06-13T00:37:30.040Z,0
2017-06-13T00:38:10.533Z,0
2017-06-13T00:38:51.038Z,0
2017-06-13T00:39:31.524Z,0
2017-06-13T00:40:12.026Z,0
2017-06-13T00:40:52.509Z,0
2017-06-13T00:41:33.010Z,0
2017-06-13T00:42:13.518Z,0
2017-06-13T00:42:54.013Z,0
2017-06-13T00:43:34.520Z,0
2017-06-13T00:44:15.004Z,0
2017-06-13T00:44:55.493Z,0
2017-06-13T00:45:35.990Z,0
2017-06-13T00:46:16.487Z,0
2017-06-13T00:46:56.969Z,0
2017-06-13T00:47:37.472Z,0
2017-06-13T00:48:17.964Z,0
2017-06-13T00:48:58.447Z,0
2017-06-13T00:49:38.942Z,0
2017-06-13T00:50:19.436Z,0
2017-06-13T00:50:59.924Z,0
2017-06-13T00:51:40.421Z,0
2017-06-13T00:52:20.900Z,0
2017-06-13T00:53:01.400Z,0
2017-06-13T00:53:41.896Z,0
2017-06-13T00:54:22.386Z,0
2017-06-13T00:55:02.876Z,0
2017-06-13T00:55:43.384Z,0
2017-06-13T00:56:23.866Z,0
2017-06-13T00:57:04.355Z,0
2017-06-13T00:57:44.843Z,0
2017-06-13T00:58:25.338Z,0
2017-06-13T00:59:05.832Z,0
2017-06-13T00:59:46.334Z,0
2017-06-13T01:00:26.822Z,0
2017-06-13T01:01:07.311Z,0
2017-06-13T01:01:47.803Z,0
2017-06-13T01:02:28.304Z,0
2017-06-13T01:03:08.790Z,0
2017-06-13T01:03:49.288Z,0
2017-06-13T01:04:29.774Z,0
2017-06-13T01:05:10.253Z,0
2017-06-13T01:05:50.747Z,0
2017-06-13T01:06:31.246Z,0
2017-06-13T01:07:11.718Z,0
2017-06-13T01:07:52.203Z,0
2017-06-13T01:08:32.778Z,0
2017-06-13T01:09:13.303Z,0
2017-06-13T01:09:53.788Z,0
2017-06-13T01:10:34.236Z,0
2017-06-13T01:11:14.740Z,0
2017-06-13T01:11:55.227Z,0
2017-06-13T01:12:35.712Z,0
2017-06-13T01:13:16.204Z,0
2017-06-13T01:13:56.700Z,0
2017-06-13T01:14:37.195Z,0
2017-06-13T01:15:17.695Z,0
2017-06-13T01:15:58.181Z,0
2017-06-13T01:16:38.653Z,0
2017-06-13T01:17:20.114Z,0
2017-06-13T01:18:00.598Z,0
2017-06-13T01:18:41.096Z,0
2017-06-13T01:19:21.595Z,0
2017-06-13T01:20:02.085Z,0
2017-06-13T01:20:42.576Z,0
2017-06-13T01:21:23.076Z,0
2017-06-13T01:22:03.563Z,0
2017-06-13T01:22:44.052Z,0
2017-06-13T01:23:24.543Z,0
2017-06-13T01:24:05.029Z,0
2017-06-13T01:24:45.518Z,0
2017-06-13T01:25:26.020Z,0
2017-06-13T01:26:06.518Z,0
2017-06-13T01:26:47.012Z,0
2017-06-13T01:27:27.503Z,0
2017-06-13T01:28:07.994Z,0
2017-06-13T01:30:20.703Z,0
2017-06-13T01:31:01.197Z,0
2017-06-13T01:31:41.686Z,0
2017-06-13T01:32:22.184Z,0
2017-06-13T01:33:02.674Z,0
2017-06-13T01:33:43.159Z,0
2017-06-13T01:34:23.661Z,0
2017-06-13T01:35:04.134Z,0
2017-06-13T01:35:44.628Z,0
2017-06-13T01:36:25.131Z,0
2017-06-13T01:37:05.627Z,0
2017-06-13T01:37:46.133Z,0
2017-06-13T01:38:26.614Z,0
2017-06-13T01:39:07.090Z,0
2017-06-13T01:39:47.596Z,0
2017-06-13T01:40:28.066Z,0
2017-06-13T01:41:08.552Z,0
2017-06-13T01:41:49.052Z,0
2017-06-13T01:42:29.565Z,0
2017-06-13T01:43:10.049Z,0
2017-06-13T01:43:50.547Z,0
2017-06-13T01:44:31.041Z,0
2017-06-13T01:45:11.537Z,0
2017-06-13T01:45:52.037Z,0
2017-06-13T01:46:32.547Z,0
2017-06-13T01:47:13.004Z,0
2017-06-13T01:47:53.507Z,0
2017-06-13T01:48:34.002Z,0
2017-06-13T01:49:14.491Z,0
2017-06-13T01:49:55.924Z,0
2017-06-13T01:50:36.405Z,0
2017-06-13T01:51:16.890Z,0
2017-06-13T01:51:57.400Z,0
2017-06-13T01:52:37.875Z,0
2017-06-13T01:53:18.366Z,0
2017-06-13T01:53:58.871Z,0
2017-06-13T01:54:39.351Z,0
2017-06-13T01:55:19.832Z,0
2017-06-13T01:56:00.335Z,0
2017-06-13T01:56:40.835Z,0
2017-06-13T01:57:21.309Z,0
2017-06-13T01:58:01.800Z,0
2017-06-13T01:58:42.283Z,0
2017-06-13T01:59:22.797Z,0
2017-06-13T02:00:03.292Z,0
2017-06-13T02:00:43.803Z,0
2017-06-13T02:01:24.286Z,0
2017-06-13T02:02:04.776Z,0
2017-06-13T02:02:45.258Z,0
2017-06-13T02:03:25.737Z,0
2017-06-13T02:04:06.237Z,0
2017-06-13T02:04:46.736Z,0
2017-06-13T02:05:27.219Z,0
2017-06-13T02:06:07.715Z,0
2017-06-13T02:06:48.223Z,0
2017-06-13T02:07:28.711Z,0
2017-06-13T02:08:09.207Z,0
2017-06-13T02:08:49.700Z,0
2017-06-13T02:09:30.188Z,0
2017-06-13T02:10:10.690Z,0
2017-06-13T02:10:51.170Z,0
2017-06-13T02:11:31.662Z,0
2017-06-13T02:12:12.149Z,0
2017-06-13T02:12:52.658Z,0
2017-06-13T02:13:33.138Z,0
2017-06-13T02:14:13.614Z,0
2017-06-13T02:14:54.134Z,0
2017-06-13T02:15:34.585Z,0
2017-06-13T02:16:15.078Z,0
2017-06-13T02:16:55.579Z,0
2017-06-13T02:17:36.067Z,0
2017-06-13T02:18:16.555Z,0
2017-06-13T02:18:57.047Z,0
2017-06-13T02:19:37.535Z,0
2017-06-13T02:20:19.054Z,0
2017-06-13T02:20:59.556Z,0
2017-06-13T02:21:40.035Z,0
2017-06-13T02:22:20.531Z,0
2017-06-13T02:23:01.012Z,0
2017-06-13T02:23:41.509Z,0
2017-06-13T02:24:21.998Z,0
2017-06-13T02:25:02.498Z,0
2017-06-13T02:25:42.987Z,0
2017-06-13T02:26:23.472Z,0
2017-06-13T02:27:03.963Z,0
2017-06-13T02:27:44.470Z,0
2017-06-13T02:28:24.962Z,0
2017-06-13T02:29:05.467Z,0
2017-06-13T02:29:45.986Z,0
2017-06-13T02:30:26.483Z,0
2017-06-13T02:31:06.972Z,0
2017-06-13T02:31:47.459Z,0
2017-06-13T02:32:27.969Z,0
2017-06-13T02:33:08.460Z,0
2017-06-13T02:33:48.949Z,0
2017-06-13T02:34:29.444Z,0
2017-06-13T02:35:09.923Z,0
2017-06-13T02:35:50.415Z,0
2017-06-13T02:36:30.912Z,0
2017-06-13T02:37:11.400Z,0
2017-06-13T02:37:51.889Z,0
2017-06-13T02:38:32.376Z,0
2017-06-13T02:39:12.870Z,0
2017-06-13T02:39:53.365Z,0
2017-06-13T02:40:33.894Z,0
2017-06-13T02:41:14.363Z,0
2017-06-13T02:41:54.875Z,4
2017-06-13T02:42:35.340Z,4
2017-06-13T02:43:15.826Z,4
2017-06-13T02:43:56.311Z,4
2017-06-13T02:44:36.808Z,4
2017-06-13T02:45:17.303Z,0
2017-06-13T02:45:57.805Z,0
2017-06-13T02:46:38.303Z,4
2017-06-13T02:47:18.788Z,4
2017-06-13T02:47:59.319Z,4
2017-06-13T02:48:39.810Z,8
2017-06-13T02:49:20.298Z,4
2017-06-13T02:50:00.800Z,4
2017-06-13T02:50:41.278Z,8
2017-06-13T02:51:21.775Z,4
2017-06-13T02:52:02.265Z,8
2017-06-13T02:52:42.782Z,8
2017-06-13T02:53:23.254Z,8
2017-06-13T02:54:03.743Z,8
2017-06-13T02:54:44.233Z,8
2017-06-13T02:55:24.728Z,12
2017-06-13T02:56:05.210Z,12
2017-06-13T02:56:45.702Z,16
2017-06-13T02:57:26.189Z,12
2017-06-13T02:58:06.690Z,12
2017-06-13T02:58:47.185Z,20
2017-06-13T02:59:27.664Z,20
2017-06-13T03:00:08.154Z,20
2017-06-13T03:00:48.654Z,24
2017-06-13T03:01:29.148Z,24
2017-06-13T03:02:09.645Z,28
2017-06-13T03:02:50.141Z,28
2017-06-13T03:03:30.636Z,32
2017-06-13T03:04:11.137Z,36
2017-06-13T03:04:51.627Z,36
2017-06-13T03:05:32.119Z,40
2017-06-13T03:06:12.599Z,40
2017-06-13T03:06:53.086Z,48
2017-06-13T03:07:33.577Z,52
2017-06-13T03:08:14.066Z,56
2017-06-13T03:08:54.574Z,60
2017-06-13T03:09:35.096Z,64
2017-06-13T03:10:15.595Z,68
2017-06-13T03:10:56.084Z,72
2017-06-13T03:11:36.575Z,76
2017-06-13T03:12:17.068Z,84
2017-06-13T03:12:57.565Z,88
2017-06-13T03:13:38.066Z,96
2017-06-13T03:14:18.543Z,100
2017-06-13T03:14:59.030Z,108
2017-06-13T03:15:39.508Z,112
2017-06-13T03:16:20.004Z,124
2017-06-13T03:17:00.488Z,132
2017-06-13T03:17:40.980Z,140
2017-06-13T03:18:21.463Z,148
2017-06-13T03:19:01.968Z,156
2017-06-13T03:19:42.453Z,160
2017-06-13T03:20:22.938Z,172
2017-06-13T03:21:03.437Z,180
2017-06-13T03:21:43.931Z,192
2017-06-13T03:22:24.423Z,200
2017-06-13T03:23:04.916Z,212
2017-06-13T03:23:45.410Z,220
2017-06-13T03:24:25.894Z,232
2017-06-13T03:25:06.381Z,244
2017-06-13T03:25:46.875Z,256
2017-06-13T03:26:27.374Z,268
2017-06-13T03:27:07.898Z,276
2017-06-13T03:27:48.349Z,292
2017-06-13T03:28:28.849Z,304
2017-06-13T03:29:09.950Z,320
2017-06-13T03:29:50.428Z,332
2017-06-13T03:30:30.921Z,344
2017-06-13T03:31:11.402Z,356
2017-06-13T03:31:51.896Z,372
2017-06-13T03:32:32.389Z,388
2017-06-13T03:33:12.890Z,400
2017-06-13T03:33:53.371Z,416
2017-06-13T03:34:33.854Z,432
2017-06-13T03:35:14.357Z,444
2017-06-13T03:35:54.850Z,460
2017-06-13T03:36:35.351Z,480
2017-06-13T03:37:15.837Z,492
2017-06-13T03:37:56.329Z,508
2017-06-13T03:38:36.821Z,528
2017-06-13T03:39:17.314Z,540
2017-06-13T03:39:57.816Z,560
2017-06-13T03:40:38.308Z,576
2017-06-13T03:41:18.802Z,592
2017-06-13T03:41:59.282Z,612
2017-06-13T03:42:39.774Z,628
2017-06-13T03:43:20.269Z,644
2017-06-13T03:44:00.760Z,664
2017-06-13T03:44:41.254Z,680
2017-06-13T03:45:21.741Z,696
2017-06-13T03:46:02.240Z,716
2017-06-13T03:46:42.731Z,736
2017-06-13T03:47:23.238Z,752
2017-06-13T03:48:03.700Z,768
2017-06-13T03:48:44.196Z,788
2017-06-13T03:49:24.697Z,808
2017-06-13T03:50:05.192Z,824
2017-06-13T03:50:45.713Z,848
2017-06-13T03:51:26.205Z,864
2017-06-13T03:52:06.703Z,884
2017-06-13T03:52:47.199Z,900
2017-06-13T03:53:27.688Z,920
2017-06-13T03:54:08.181Z,944
2017-06-13T03:54:48.673Z,960
2017-06-13T03:55:29.164Z,980
2017-06-13T03:56:09.658Z,996
2017-06-13T03:56:50.151Z,1016
2017-06-13T03:57:30.651Z,1036
2017-06-13T03:58:11.136Z,1052
2017-06-13T03:58:51.634Z,1072
2017-06-13T03:59:32.119Z,1092
2017-06-13T04:00:12.612Z,1108
2017-06-13T04:00:53.109Z,1128
2017-06-13T04:01:33.593Z,1144
2017-06-13T04:02:14.071Z,1160
2017-06-13T04:02:54.583Z,1180
2017-06-13T04:03:35.079Z,1200
2017-06-13T04:04:15.561Z,1220
2017-06-13T04:06:48.582Z,1284
2017-06-13T04:07:29.082Z,1300
2017-06-13T04:08:09.584Z,1320
2017-06-13T04:08:50.067Z,1336
2017-06-13T04:09:30.561Z,1356
2017-06-13T04:10:11.047Z,1376
2017-06-13T04:10:51.544Z,1396
2017-06-13T04:11:32.030Z,1412
2017-06-13T04:12:12.528Z,1436
2017-06-13T04:12:53.012Z,1452
2017-06-13T04:13:33.508Z,1472
2017-06-13T04:14:14.012Z,1496
2017-06-13T04:14:54.502Z,1516
2017-06-13T04:15:34.991Z,1540
2017-06-13T04:16:15.482Z,1560
2017-06-13T04:16:55.977Z,1588
2017-06-13T04:17:36.481Z,1608
2017-06-13T04:18:16.959Z,1628
2017-06-13T04:18:57.444Z,1652
2017-06-13T04:19:37.930Z,1680
2017-06-13T04:20:18.443Z,1700
2017-06-13T04:20:58.936Z,1708
2017-06-13T04:21:39.423Z,1740
2017-06-13T04:22:19.930Z,1764
2017-06-13T04:23:00.397Z,1780
2017-06-13T04:23:40.871Z,1800
2017-06-13T04:24:21.404Z,1824
2017-06-13T04:25:01.873Z,1848
2017-06-13T04:25:42.360Z,1868
2017-06-13T04:26:22.868Z,1896
2017-06-13T04:27:03.373Z,1920
2017-06-13T04:27:43.848Z,1932
2017-06-13T04:28:24.350Z,1952
2017-06-13T04:29:04.840Z,1968
2017-06-13T04:29:45.350Z,1988
2017-06-13T04:30:25.829Z,2004
2017-06-13T04:31:06.299Z,2024
2017-06-13T04:31:46.784Z,2048
2017-06-13T04:32:27.279Z,2088
2017-06-13T04:33:07.760Z,2120
2017-06-13T04:33:48.245Z,2156
2017-06-13T04:34:28.740Z,2208
2017-06-13T04:35:09.239Z,2428
2017-06-13T04:35:49.729Z,2844
2017-06-13T04:36:30.256Z,3304
2017-06-13T04:37:10.747Z,3672
2017-06-13T04:37:51.277Z,3828
2017-06-13T04:38:31.769Z,3872
2017-06-13T04:39:12.254Z,3928
2017-06-13T04:39:52.751Z,3968
2017-06-13T04:40:33.248Z,4012
2017-06-13T04:41:13.727Z,4056
2017-06-13T04:41:54.241Z,4112
2017-06-13T04:42:34.723Z,4164
2017-06-13T04:43:15.208Z,4208
2017-06-13T04:43:55.710Z,4260
2017-06-13T04:44:36.191Z,4316
2017-06-13T04:45:16.650Z,4368
2017-06-13T04:45:57.162Z,4416
2017-06-13T04:46:37.643Z,4476
2017-06-13T04:47:18.135Z,4520
2017-06-13T04:47:58.628Z,4568
2017-06-13T04:48:39.159Z,4628
2017-06-13T04:49:19.654Z,4692
2017-06-13T04:50:00.144Z,4748
2017-06-13T04:50:40.635Z,4800
2017-06-13T04:51:21.136Z,4856
2017-06-13T04:52:01.613Z,4904
2017-06-13T04:52:42.110Z,4968
2017-06-13T04:53:22.598Z,5020
2017-06-13T04:54:03.094Z,5076
2017-06-13T04:54:43.585Z,5128
2017-06-13T04:55:24.081Z,5176
2017-06-13T04:56:04.567Z,5228
2017-06-13T04:56:45.678Z,5272
2017-06-13T04:57:26.159Z,5336
2017-06-13T04:58:06.657Z,5412
2017-06-13T04:58:47.181Z,5476
2017-06-13T04:59:27.652Z,5520
2017-06-13T05:00:08.138Z,5576
2017-06-13T05:00:48.632Z,5636
2017-06-13T05:01:29.130Z,5692
2017-06-13T05:02:09.625Z,5756
2017-06-13T05:02:50.111Z,5812
2017-06-13T05:05:18.047Z,6068
2017-06-13T05:05:58.562Z,6132
2017-06-13T05:06:39.056Z,6208
2017-06-13T05:07:19.554Z,6272
2017-06-13T05:08:00.038Z,6340
2017-06-13T05:08:40.528Z,6408
2017-06-13T05:09:21.036Z,6460
2017-06-13T05:10:01.519Z,6552
2017-06-13T05:10:42.007Z,6636
2017-06-13T05:11:22.510Z,6696
2017-06-13T05:12:03.005Z,6768
2017-06-13T05:12:43.484Z,6844
2017-06-13T05:13:23.991Z,6952
2017-06-13T05:14:04.477Z,7032
2017-06-13T05:14:45.001Z,7084
2017-06-13T05:15:25.529Z,7160
2017-06-13T05:16:06.024Z,7252
2017-06-13T05:16:46.509Z,7332
2017-06-13T05:17:27.006Z,7416
2017-06-13T05:18:07.507Z,7496
2017-06-13T05:18:47.980Z,7576
2017-06-13T05:19:28.466Z,7652
2017-06-13T05:20:08.961Z,7736
2017-06-13T05:20:49.433Z,7812
2017-06-13T05:21:29.934Z,7912
2017-06-13T05:22:10.436Z,7980
2017-06-13T05:22:50.919Z,8068
2017-06-13T05:23:31.409Z,8140
2017-06-13T05:24:11.909Z,8224
2017-06-13T05:24:53.252Z,8300
2017-06-13T05:25:33.759Z,8364
2017-06-13T05:26:14.238Z,8436
2017-06-13T05:26:54.726Z,8508
2017-06-13T05:27:35.230Z,8580
2017-06-13T05:28:15.745Z,8672
2017-06-13T05:28:56.229Z,8752
2017-06-13T05:29:36.731Z,8844
2017-06-13T05:30:17.272Z,8952
2017-06-13T05:30:57.757Z,9048
2017-06-13T05:31:38.246Z,9168
2017-06-13T05:32:18.746Z,9244
2017-06-13T05:32:59.230Z,9328
2017-06-13T05:33:39.710Z,9448
2017-06-13T05:34:20.208Z,9552
2017-06-13T05:35:00.702Z,9652
2017-06-13T05:35:41.193Z,9772
2017-06-13T05:36:21.704Z,9872
2017-06-13T05:37:02.198Z,9996
2017-06-13T05:39:30.183Z,10472
2017-06-13T05:40:10.635Z,10576
2017-06-13T05:40:51.114Z,10688
2017-06-13T05:41:31.613Z,10812
2017-06-13T05:42:12.061Z,10920
2017-06-13T05:42:52.516Z,11048
2017-06-13T05:45:25.502Z,11556
2017-06-13T05:46:05.994Z,11704
2017-06-13T05:46:46.482Z,11880
2017-06-13T05:47:26.986Z,12064
2017-06-13T05:48:07.443Z,12208
2017-06-13T05:48:47.935Z,12336
2017-06-13T05:49:28.428Z,12452
2017-06-13T05:50:08.933Z,12548
2017-06-13T05:50:49.396Z,12672
2017-06-13T05:51:29.893Z,12780
2017-06-13T05:52:10.392Z,12908
2017-06-13T05:52:50.894Z,13032
2017-06-13T05:53:31.406Z,13168
2017-06-13T05:54:11.903Z,13312
2017-06-13T05:54:52.392Z,13404
2017-06-13T05:55:32.907Z,13520
2017-06-13T05:56:13.389Z,13676
2017-06-13T05:56:53.890Z,13816
2017-06-13T05:57:34.386Z,13956
2017-06-13T05:58:14.902Z,14128
2017-06-13T05:58:55.388Z,14312
2017-06-13T05:59:35.904Z,14444
2017-06-13T06:00:16.402Z,14620
2017-06-13T06:00:56.885Z,14748
2017-06-13T06:01:37.384Z,14928
2017-06-13T06:02:17.897Z,15136
2017-06-13T06:02:58.401Z,15524
2017-06-13T06:03:38.900Z,16012
2017-06-13T06:04:19.392Z,16608
2017-06-13T06:04:59.887Z,16992
2017-06-13T06:05:40.419Z,17152
2017-06-13T06:06:20.917Z,17184
2017-06-13T06:07:01.396Z,17408
2017-06-13T06:07:41.888Z,17440
2017-06-13T06:08:22.391Z,17504
2017-06-13T06:09:02.873Z,17664
2017-06-13T06:09:43.367Z,17856
2017-06-13T06:10:23.887Z,18048
2017-06-13T06:11:04.352Z,18336
2017-06-13T06:11:44.816Z,18496
2017-06-13T06:12:25.317Z,18720
2017-06-13T06:13:05.830Z,18912
2017-06-13T06:13:46.321Z,19232
2017-06-13T06:14:26.831Z,19520
2017-06-13T06:15:07.333Z,19712
2017-06-13T06:15:47.795Z,19904
2017-06-13T06:16:28.290Z,20032
2017-06-13T06:17:08.799Z,20192
2017-06-13T06:17:49.301Z,20288
2017-06-13T06:18:29.779Z,20512
2017-06-13T06:19:10.264Z,20800
2017-06-13T06:19:50.754Z,21024
2017-06-13T06:20:31.280Z,21344
2017-06-13T06:21:11.776Z,21536
2017-06-13T06:21:52.334Z,21792
2017-06-13T06:22:32.847Z,22080
2017-06-13T06:23:13.419Z,22496
2017-06-13T06:23:53.909Z,22976
2017-06-13T06:24:34.418Z,23424
2017-06-13T06:25:14.900Z,23968
2017-06-13T06:25:55.385Z,24576
2017-06-13T06:26:35.884Z,25152
2017-06-13T06:27:16.402Z,25600
2017-06-13T06:27:56.875Z,26080
2017-06-13T06:28:37.368Z,26656
2017-06-13T06:29:17.860Z,27264
2017-06-13T06:29:58.345Z,27904
2017-06-13T06:30:38.844Z,28480
2017-06-13T06:31:19.365Z,28960
2017-06-13T06:31:59.868Z,29280
2017-06-13T06:32:40.366Z,29568
2017-06-13T06:33:20.866Z,29952
2017-06-13T06:34:01.377Z,30432
2017-06-13T06:34:41.860Z,30720
2017-06-13T06:35:22.336Z,30496
2017-06-13T06:37:50.318Z,29824
2017-06-13T06:38:30.875Z,29408
2017-06-13T06:39:11.405Z,28928
2017-06-13T06:39:51.968Z,28960
2017-06-13T06:40:32.530Z,30336
2017-06-13T06:41:13.034Z,41536
2017-06-13T06:41:53.523Z,59648
2017-06-13T06:42:34.022Z,71552
2017-06-13T06:43:14.505Z,79808
2017-06-13T06:43:55.011Z,75936
2017-06-13T06:44:35.485Z,71456
2017-06-13T06:45:15.975Z,64224
2017-06-13T06:45:56.459Z,58528
2017-06-13T06:46:36.966Z,52320
2017-06-13T06:47:17.438Z,57184
2017-06-13T06:47:57.934Z,62528
2017-06-13T06:48:38.521Z,60320
2017-06-13T06:49:18.909Z,53632
2017-06-13T06:49:59.415Z,49024
2017-06-13T06:50:39.958Z,50720
2017-06-13T06:51:20.419Z,54816
2017-06-13T06:52:00.892Z,56864
2017-06-13T06:52:41.394Z,55904
2017-06-13T06:53:21.873Z,56032
2017-06-13T06:54:02.366Z,59200
2017-06-13T06:54:42.874Z,59808
2017-06-13T06:55:23.362Z,57920
2017-06-13T06:56:03.858Z,55200
2017-06-13T06:56:44.354Z,53056
2017-06-13T06:57:24.838Z,54496
2017-06-13T06:58:05.334Z,57056
2017-06-13T06:58:45.828Z,59424
2017-06-13T06:59:26.370Z,59072
2017-06-13T07:00:06.849Z,58464
2017-06-13T07:02:34.813Z,60192
2017-06-13T07:03:15.318Z,59296
2017-06-13T07:03:55.826Z,58240
2017-06-13T07:04:36.296Z,59360
2017-06-13T07:05:16.817Z,58496
2017-06-13T07:07:49.866Z,54912
2017-06-13T07:08:30.382Z,57472
2017-06-13T07:09:10.880Z,59136
2017-06-13T07:09:51.360Z,60704
2017-06-13T07:10:31.880Z,59712
2017-06-13T07:11:12.417Z,59584
2017-06-13T07:11:52.883Z,57824
2017-06-13T07:12:33.366Z,58368
2017-06-13T07:13:13.890Z,58560
2017-06-13T07:13:54.379Z,56192
2017-06-13T07:14:34.889Z,58304
2017-06-13T07:15:15.362Z,59808
2017-06-13T07:15:55.852Z,59968
2017-06-13T07:16:36.360Z,59328
2017-06-13T07:17:16.841Z,59904
2017-06-13T07:17:57.336Z,62752
2017-06-13T07:18:37.832Z,62112
2017-06-13T07:19:18.333Z,61504
2017-06-13T07:19:58.844Z,61696
2017-06-13T07:20:39.348Z,63552
2017-06-13T07:21:19.872Z,64672
2017-06-13T07:22:00.374Z,65152
2017-06-13T07:22:40.933Z,65376
2017-06-13T07:23:21.438Z,65248
2017-06-13T07:24:01.934Z,60416
2017-06-13T07:24:42.443Z,51456
2017-06-13T07:25:22.965Z,42432
2017-06-13T07:26:03.449Z,33280
2017-06-13T07:26:43.969Z,24832
2017-06-13T07:27:24.463Z,18432
2017-06-13T07:28:05.786Z,16328
2017-06-13T07:28:47.184Z,15920
2017-06-13T07:29:27.734Z,15664
2017-06-13T07:30:08.245Z,15488
2017-06-13T07:30:48.768Z,15340
2017-06-13T07:31:29.262Z,15192
2017-06-13T07:32:09.817Z,15164
2017-06-13T07:32:50.347Z,15100
2017-06-13T07:33:30.828Z,15048
2017-06-13T07:34:11.306Z,14960
2017-06-13T07:34:51.805Z,14872
2017-06-13T07:35:32.303Z,14760
2017-06-13T07:36:12.797Z,14664
2017-06-13T07:36:53.295Z,14584
2017-06-13T07:37:33.795Z,14472
2017-06-13T07:38:14.358Z,14372
2017-06-13T07:38:54.815Z,14260
2017-06-13T07:39:35.319Z,14164
2017-06-13T07:40:15.884Z,14052
2017-06-13T07:40:56.413Z,13972
2017-06-13T07:43:14.483Z,13772
2017-06-13T07:43:54.987Z,13688
2017-06-13T07:44:35.491Z,13644
2017-06-13T07:45:16.515Z,13632
2017-06-13T07:45:57.001Z,13616
2017-06-13T07:46:37.518Z,13604
2017-06-13T07:47:17.984Z,13624
2017-06-13T07:47:58.451Z,13636
2017-06-13T07:48:38.973Z,13616
2017-06-13T07:49:19.480Z,13600
2017-06-13T07:49:59.978Z,13584
2017-06-13T07:50:41.217Z,13636
2017-06-13T07:51:21.752Z,13780
2017-06-13T07:52:02.238Z,13908
2017-06-13T07:52:42.727Z,13996
2017-06-13T07:53:23.271Z,14084
2017-06-13T07:54:03.761Z,14128
2017-06-13T07:54:44.265Z,14232
2017-06-13T07:55:24.781Z,14316
2017-06-13T07:56:05.310Z,14388
2017-06-13T07:58:18.150Z,14508
2017-06-13T07:58:58.590Z,14508
2017-06-13T07:59:39.084Z,14532
2017-06-13T08:00:19.595Z,14544
2017-06-13T08:01:00.057Z,14612
2017-06-13T08:01:40.567Z,14684
2017-06-13T08:02:21.054Z,14784
2017-06-13T08:03:01.560Z,14924
2017-06-13T08:03:42.044Z,15112
2017-06-13T08:04:22.574Z,15428
2017-06-13T08:05:03.142Z,15804
2017-06-13T08:05:43.641Z,16684
2017-06-13T08:06:24.137Z,19744
2017-06-13T08:07:04.682Z,27136
2017-06-13T08:07:45.238Z,35328
2017-06-13T08:08:25.742Z,46080
2017-06-13T08:09:06.279Z,56480
2017-06-13T08:09:46.775Z,66848
2017-06-13T08:10:27.342Z,75872
2017-06-13T08:11:07.857Z,80544
2017-06-13T08:11:48.356Z,81632
2017-06-13T08:12:28.876Z,81760
2017-06-13T08:13:09.397Z,81312
2017-06-13T08:13:49.944Z,81376
2017-06-13T08:14:30.503Z,81216
2017-06-13T08:15:11.027Z,74912
2017-06-13T08:15:51.575Z,61888
2017-06-13T08:16:32.104Z,43104
2017-06-13T08:17:12.624Z,27968
2017-06-13T08:17:53.197Z,18688
2017-06-13T08:18:33.800Z,18048
2017-06-13T08:19:14.307Z,17888
2017-06-13T08:19:54.846Z,17920
2017-06-13T08:20:35.384Z,18144
2017-06-13T08:21:15.918Z,18528
2017-06-13T08:21:56.547Z,18656
2017-06-13T08:22:37.158Z,18720
2017-06-13T08:23:17.747Z,18848
2017-06-13T08:23:58.293Z,19040
2017-06-13T08:24:38.887Z,19360
2017-06-13T08:25:19.377Z,19680
2017-06-13T08:27:48.173Z,45312
2017-06-13T08:28:28.655Z,68512
2017-06-13T08:29:09.215Z,86592
2017-06-13T08:29:49.739Z,88576
2017-06-13T08:30:30.270Z,86336
2017-06-13T08:31:10.794Z,89088
2017-06-13T08:31:51.312Z,90944
2017-06-13T08:32:31.931Z,94048
2017-06-13T08:33:12.391Z,96544
2017-06-13T08:33:52.883Z,99680
2017-06-13T08:34:33.415Z,99040
2017-06-13T08:35:13.957Z,97856
2017-06-13T08:35:54.477Z,95840
2017-06-13T08:36:34.982Z,95968
2017-06-13T08:37:15.477Z,96160
2017-06-13T08:37:55.956Z,95776
2017-06-13T08:38:36.452Z,97568
2017-06-13T08:39:16.998Z,95872
2017-06-13T08:39:57.545Z,92192
2017-06-13T08:40:38.024Z,87744
2017-06-13T08:41:18.541Z,89184
2017-06-13T08:41:59.041Z,95808
2017-06-13T08:42:39.571Z,100672
2017-06-13T08:43:20.094Z,101440
2017-06-13T08:44:00.581Z,103296
2017-06-13T08:44:41.072Z,105152
2017-06-13T08:45:21.571Z,99072
2017-06-13T08:46:02.082Z,100512
2017-06-13T08:46:42.563Z,107616
2017-06-13T08:47:23.045Z,101312
2017-06-13T08:48:03.573Z,73056
2017-06-13T08:50:01.247Z,30112
2017-06-13T08:50:41.776Z,28864
2017-06-13T08:51:22.243Z,28128
2017-06-13T08:52:02.743Z,28096
2017-06-13T08:52:43.264Z,27744
2017-06-13T08:53:23.780Z,28096
2017-06-13T08:54:04.287Z,28768
2017-06-13T08:54:44.785Z,29856
2017-06-13T08:55:25.303Z,30720
2017-06-13T08:56:05.776Z,31936
2017-06-13T08:56:46.244Z,33344
2017-06-13T08:57:26.719Z,35296
2017-06-13T08:58:07.229Z,36352
2017-06-13T08:58:47.709Z,36896
2017-06-13T09:01:20.770Z,102912
2017-06-13T09:02:01.368Z,132096
2017-06-13T09:02:41.862Z,143392
2017-06-13T09:03:22.334Z,141408
2017-06-13T09:04:02.844Z,135232
2017-06-13T09:04:43.374Z,123008
2017-06-13T09:05:23.902Z,118848
2017-06-13T09:06:04.383Z,112448
2017-06-13T09:06:44.874Z,109536
2017-06-13T09:07:25.368Z,108640
2017-06-13T09:08:05.843Z,110400
2017-06-13T09:08:46.389Z,111328
2017-06-13T09:09:26.884Z,110880
2017-06-13T09:10:07.404Z,111168
2017-06-13T09:10:47.902Z,111168
2017-06-13T09:11:28.414Z,109952
2017-06-13T09:12:08.884Z,108192
2017-06-13T09:12:49.359Z,109728
2017-06-13T09:13:30.275Z,108384
2017-06-13T09:15:48.385Z,110880
2017-06-13T09:16:28.794Z,111136
2017-06-13T09:17:09.310Z,110688
2017-06-13T09:17:49.877Z,113888
2017-06-13T09:18:30.469Z,112128
2017-06-13T09:19:11.014Z,111680
2017-06-13T09:19:51.564Z,108928
2017-06-13T09:20:34.901Z,107264
2017-06-13T09:21:15.564Z,104032
2017-06-13T09:21:55.956Z,101920
2017-06-13T09:22:36.487Z,100960
2017-06-13T09:23:17.021Z,100800
2017-06-13T09:23:57.644Z,101696
2017-06-13T09:24:38.343Z,98368
2017-06-13T09:25:18.953Z,97920
2017-06-13T09:25:59.378Z,95200
2017-06-13T09:26:39.863Z,91424
2017-06-13T09:27:20.326Z,90304
2017-06-13T09:29:53.483Z,97696
2017-06-13T09:30:34.054Z,98208
2017-06-13T09:31:14.534Z,97824
2017-06-13T09:31:55.031Z,96960
2017-06-13T09:32:35.561Z,97632
2017-06-13T09:33:16.098Z,97376
2017-06-13T09:33:56.596Z,97536
2017-06-13T09:34:37.123Z,97920
2017-06-13T09:35:17.613Z,87712
2017-06-13T09:35:58.180Z,63520
2017-06-13T09:36:38.660Z,35424
2017-06-13T09:37:19.227Z,23744
2017-06-13T09:37:59.713Z,22368
2017-06-13T09:38:40.226Z,21600
2017-06-13T09:39:20.827Z,20928
2017-06-13T09:40:01.247Z,20512
2017-06-13T09:40:41.764Z,20160
2017-06-13T09:41:22.251Z,19904